Nearby METAR Reports

 

KORH - Worcester, Massachusetts, USA
Distance from station: NW 4mi, 7km
Updated: Mon, 17-Jan-2022 5:54pm EST
Overcast
Overcast
 Wind from SW
Wind: SW 17 mph , 28 km/h, Gust: 23 mph , 37 km/h
Temperature: 34°F , 1°C
Wind Chill: 23°F , -5°C
Dew Point: 30°F , -1°C
Humidity: 87%
Barometer: 29.07 inHg , 984.4 hPa
Clouds: Overcast
Visibility: 10 miles , 16 km
Cloud details: Overcast 1000 ft
2022/01/17 22:54 KORH 172254Z 23015G20KT 10SM OVC010 01/M01 A2907 RMK AO2 SNB2156E08 SLP853 P0000 T00111011
KBOS - Boston, Massachusetts, USA
Distance from station: ENE 42mi, 68km
Updated: Mon, 17-Jan-2022 5:54pm EST
Light rain, Overcast
Light rain, Overcast
 Wind from SW
Wind: SW 16 mph , 26 km/h, Gust: 25 mph , 41 km/h
Temperature: 37°F , 3°C
Wind Chill: 28°F , -2°C
Dew Point: 34°F , 1°C
Humidity: 87%
Barometer: 29.12 inHg , 986.1 hPa
Summary: Light rain
Clouds: Overcast
Visibility: 9 miles , 14 km
Cloud details: Few Clouds 1200 ft
Mostly cloudy 2500 ft
Overcast 3600 ft
2022/01/17 22:54 KBOS 172254Z 22014G22KT 9SM -RA FEW012 BKN025 OVC036 03/01 A2912 RMK AO2 PK WND 24028/2235 RAB06E14B32 SLP860 P0000 T00280006
 
KCQX - Chatham, Massachusetts, USA
Distance from station: SE 102mi, 164km
Updated: Mon, 17-Jan-2022 6:03pm EST
Light rain, Overcast
Light rain, Overcast
 Wind from SW
Wind: SW 13 mph , 20 km/h, Gust: 26 mph , 43 km/h
Temperature: 39°F , 4°C
Wind Chill: 31°F , -1°C
Dew Point: 36°F , 2°C
Humidity: 87%
Barometer: 29.20 inHg , 988.8 hPa
Summary: Light rain
Clouds: Overcast
Visibility: 10 miles , 16 km
Cloud details: Few Clouds 2000 ft
Mostly cloudy 3000 ft
Overcast 4500 ft
2022/01/17 23:03 KCQX 172303Z AUTO 22011G23KT 10SM -RA FEW020 BKN030 OVC045 04/02 A2920 RMK AO2 P0000 T00440022
KMVY - Marthas Vineyard, Massachusetts, USA
Distance from station: SE 84mi, 135km
Updated: Mon, 17-Jan-2022 5:53pm EST
Overcast
Overcast
 Wind from SW
Wind: SW 22 mph , 35 km/h, Gust: 32 mph , 52 km/h
Temperature: 43°F , 6°C
Wind Chill: 34°F , 1°C
Dew Point: 34°F , 1°C
Humidity: 71%
Barometer: 29.19 inHg , 988.5 hPa
Clouds: Overcast
Visibility: 10 miles , 16 km
Cloud details: Overcast 3300 ft
2022/01/17 22:53 KMVY 172253Z AUTO 23019G28KT 10SM OVC033 06/01 A2919 RMK AO2 PK WND 24030/2205 RAB02E50 SLP884 P0000 T00610006
 
KPVC - Provincetown, Massachusetts, USA
Distance from station: NNW 85mi, 136km
Updated: Mon, 17-Jan-2022 5:56pm EST
Overcast
Overcast
 Wind from SW
Wind: SW 26 mph , 43 km/h, Gust: 31 mph , 50 km/h
Barometer: 29.16 inHg , 987.5 hPa
Clouds: Overcast
Visibility: 10 miles , 16 km
Cloud details: Few Clouds 1800 ft
Mostly cloudy 3600 ft
Overcast 4300 ft
2022/01/17 22:56 KPVC 172256Z AUTO 22023G27KT 10SM FEW018 BKN036 OVC043 A2916 RMK AO2 PK WND 22033/2221 RAE2158UPB25E40 SLPNO P0000 FZRANO $
KAQW - Savoy, Massachusetts, USA
Distance from station: NNW 66mi, 106km
Updated: Mon, 17-Jan-2022 5:52pm EST
Light snow, Overcast
Light snow, Overcast
 Wind from varies
Wind: varies 7 mph , 11 km/h
Barometer: 29.06 inHg , 984.1 hPa
Summary: Light Snow
Clouds: Overcast
Visibility: 6 miles , 10 km
Cloud details: Mostly cloudy 4500 ft
Overcast 5500 ft
2022/01/17 22:52 KAQW 172252Z AUTO VRB06KT 6SM -SN BKN045 OVC055 A2906 RMK AO2 SNB24 SLPNO P0000 $
 
KIZG - Fryeburg, Maine, USA
Distance from station: NNE 133mi, 214km
Updated: Mon, 17-Jan-2022 5:54pm EST
Overcast
Overcast
 Wind from ESE
Wind: ESE 5 mph , 7 km/h
Temperature: 32°F , 0°C
Wind Chill: 27°F , -3°C
Dew Point: 30°F , -1°C
Humidity: 93%
Barometer: 29.01 inHg , 982.4 hPa
Clouds: Overcast
Visibility: 10 miles , 16 km
Cloud details: Overcast 4000 ft
2022/01/17 22:54 KIZG 172254Z AUTO 11004KT 10SM OVC040 00/M01 A2901 RMK AO2 SLP831 T00001006
KMWN - Mt Washington, New Hampshire, USA
Distance from station: NNE 146mi, 234km
Updated: Mon, 17-Jan-2022 5:59pm EST
Freezing fog, Blowing, Snow, Overcast
Freezing fog, Blowing, Snow, Overcast
 Wind from WSW
Wind: WSW 40 mph , 65 km/h, Gust: 52 mph , 83 km/h
Temperature: 16°F , -9°C
Wind Chill: -6°F , -21°C
Dew Point: 16°F , -9°C
Humidity: 100%
Summary: Freezing fog, Blowing, Snow
Clouds: Overcast
Visibility: 0 miles , 0 km
Cloud details: Overcast 0 ft
2022/01/17 22:59 KMWN 172259Z 24035G45KT 0SM FZFG BLSN VV000 M09/M09 RMK VRY LGT ICG
 
KBML - Berlin, New Hampshire, USA
Distance from station: NNE 160mi, 257km
Updated: Mon, 17-Jan-2022 5:52pm EST
Mist, Overcast
Mist, Overcast
 Wind from calm
Wind: Calm
Temperature: 27°F , -3°C
Dew Point: 25°F , -4°C
Humidity: 93%
Barometer: 28.95 inHg , 980.4 hPa
Summary: Mist
Clouds: Overcast
Visibility: 5 miles , 8 km
Cloud details: Overcast 3800 ft
2022/01/17 22:52 KBML 172252Z AUTO 00000KT 5SM BR OVC038 M03/M04 A2895 RMK AO2 SLP816 I1001 T10281044 $